createdAt,value
2023-03-02T19:26:45.099Z,51.47
2023-03-02T19:27:49.258Z,51.54
2023-03-02T19:28:53.389Z,51.74
2023-03-02T19:29:57.549Z,51.79
2023-03-02T19:31:01.656Z,51.95
2023-03-02T19:32:06.146Z,52.13
2023-03-02T19:33:10.320Z,52.19
2023-03-02T19:34:14.485Z,52.21
2023-03-02T19:35:18.964Z,52.29
2023-03-02T19:36:23.112Z,52.32
2023-03-02T19:37:27.225Z,52.33
2023-03-02T19:38:31.362Z,52.33
2023-03-02T19:39:35.526Z,52.4
2023-03-02T19:40:39.711Z,52.51
2023-03-02T19:41:43.835Z,52.58
2023-03-02T19:42:47.950Z,52.79
2023-03-02T19:43:52.091Z,53.64
2023-03-02T19:44:56.233Z,53.39
2023-03-02T19:46:00.579Z,53.27
2023-03-02T19:47:04.737Z,53.26
2023-03-02T19:48:08.840Z,53.46
2023-03-02T19:49:12.969Z,53.45
2023-03-02T19:50:17.068Z,53.55
2023-03-02T19:51:21.199Z,53.62
2023-03-02T19:52:25.366Z,53.65
2023-03-02T19:53:29.665Z,53.77
2023-03-02T19:54:33.757Z,53.67
2023-03-02T19:55:37.876Z,53.69
2023-03-02T19:56:41.981Z,53.63
2023-03-02T19:57:46.481Z,53.54
2023-03-02T19:58:50.773Z,53.63
2023-03-02T19:59:54.909Z,53.72
2023-03-02T20:00:59.172Z,53.74
2023-03-02T20:02:03.364Z,53.8
2023-03-02T20:03:07.505Z,53.74
2023-03-02T20:04:11.642Z,53.85
2023-03-02T20:05:15.813Z,53.82
2023-03-02T20:06:19.924Z,53.96
2023-03-02T20:07:24.033Z,54.18
2023-03-02T20:08:28.330Z,53.63
2023-03-02T20:09:32.450Z,49.73
2023-03-02T20:10:36.562Z,47.23
2023-03-02T20:11:40.689Z,45.93
2023-03-02T20:12:44.791Z,45.52
2023-03-02T20:13:48.947Z,45.6
2023-03-02T20:14:53.069Z,45.42
2023-03-02T20:15:57.173Z,45.06
2023-03-02T20:17:01.629Z,45.97
2023-03-02T20:18:05.727Z,45.22
2023-03-02T20:19:10.941Z,44.35
2023-03-02T20:20:15.777Z,44.72
2023-03-02T20:21:19.878Z,44.47
2023-03-02T20:22:23.958Z,44.46
2023-03-02T20:23:28.063Z,44.72
2023-03-02T20:24:32.241Z,44.3
2023-03-02T20:25:36.349Z,44.16
2023-03-02T20:26:40.450Z,43.99
2023-03-02T20:27:44.544Z,43.97
2023-03-02T20:28:48.674Z,43.81
2023-03-02T20:29:52.842Z,43.46
2023-03-02T20:30:57.246Z,43.66
2023-03-02T20:32:01.586Z,43.72
2023-03-02T20:33:05.709Z,44.8
2023-03-02T20:34:09.811Z,45.49
2023-03-02T20:35:13.918Z,46.05
2023-03-02T20:36:18.025Z,46.46
2023-03-02T20:37:22.159Z,46.71
2023-03-02T20:38:29.398Z,46.89
2023-03-02T20:39:33.562Z,47
2023-03-02T20:40:37.703Z,47.11
2023-03-02T20:41:41.820Z,47.16
2023-03-02T20:42:45.904Z,47.29
2023-03-02T20:43:50.028Z,47.29
2023-03-02T20:44:54.325Z,47.4
2023-03-02T20:45:58.606Z,47.14
2023-03-02T20:47:02.727Z,47.25
2023-03-02T20:48:06.818Z,47.05
2023-03-02T20:49:10.908Z,47.12
2023-03-02T20:50:15.030Z,47.25
2023-03-02T20:51:19.149Z,47.52
2023-03-02T20:52:23.367Z,47.36
2023-03-02T20:53:27.477Z,47.41
2023-03-02T20:54:31.619Z,47.49
2023-03-02T20:55:35.739Z,47.6
2023-03-02T20:56:39.876Z,47.61
2023-03-02T20:57:43.969Z,47.86
2023-03-02T20:58:48.315Z,47.8
2023-03-02T20:59:52.447Z,47.87
2023-03-02T21:00:56.606Z,48.02
2023-03-02T21:02:00.744Z,48.04
2023-03-02T21:03:04.909Z,48.09
2023-03-02T21:04:09.021Z,48.15
2023-03-02T21:05:13.125Z,48.14
2023-03-02T21:06:17.238Z,48.3
2023-03-02T21:07:21.434Z,48.37
2023-03-02T21:08:25.550Z,48.5
2023-03-02T21:09:29.743Z,48.51
2023-03-02T21:10:34.129Z,48.47
2023-03-02T21:11:38.532Z,48.46
2023-03-02T21:12:43.057Z,48.45
2023-03-02T21:13:47.359Z,48.66
2023-03-02T21:14:51.471Z,48.61
2023-03-02T21:15:55.748Z,48.57
2023-03-02T21:16:59.996Z,48.69
2023-03-02T21:18:04.138Z,48.79
2023-03-02T21:19:08.266Z,48.81
2023-03-02T21:20:12.364Z,48.9
2023-03-02T21:21:16.479Z,48.93
2023-03-02T21:22:20.584Z,48.9
2023-03-02T21:23:24.681Z,48.92
2023-03-02T21:24:28.784Z,48.95
2023-03-02T21:25:32.898Z,49.06
2023-03-02T21:26:37.012Z,49.04
2023-03-02T21:27:41.114Z,49.14
2023-03-02T21:28:45.212Z,49.12
2023-03-02T21:29:49.321Z,49.06
2023-03-02T21:30:53.603Z,49.29
2023-03-02T21:31:57.888Z,49.54
2023-03-02T21:33:02.125Z,49.46
2023-03-02T21:34:06.262Z,49.09
2023-03-02T21:35:10.401Z,49.41
2023-03-02T21:36:14.515Z,49.52
2023-03-02T21:37:18.627Z,49.27
2023-03-02T21:39:24.111Z,49.44
2023-03-02T21:40:28.945Z,49.86
2023-03-02T21:41:34.342Z,50.04
2023-03-02T21:42:38.454Z,50.01
2023-03-02T21:43:42.756Z,49.89
2023-03-02T21:44:46.902Z,49.85
2023-03-02T21:45:51.029Z,49.75
2023-03-02T21:46:55.176Z,49.66
2023-03-02T21:47:59.283Z,49.77
2023-03-02T21:49:03.386Z,49.67
2023-03-02T21:50:07.524Z,49.5
2023-03-02T21:51:11.682Z,49.55
2023-03-02T21:52:15.815Z,49.44
2023-03-02T21:53:19.914Z,49.74
2023-03-02T21:54:24.214Z,49.81
2023-03-02T21:55:28.389Z,49.62
2023-03-02T21:56:32.484Z,50.14
2023-03-02T21:57:36.586Z,49.9
2023-03-02T21:58:40.834Z,49.84
2023-03-02T21:59:45.239Z,49.85
2023-03-02T22:00:49.360Z,49.69
2023-03-02T22:01:53.690Z,48.64
2023-03-02T22:02:57.843Z,45.06
2023-03-02T22:04:01.978Z,45.72
2023-03-02T22:05:06.117Z,45.89
2023-03-02T22:06:10.255Z,45.02
2023-03-02T22:07:14.363Z,44.28
2023-03-02T22:08:18.487Z,45.35
2023-03-02T22:09:22.598Z,45.99
2023-03-02T22:10:26.709Z,46.19
2023-03-02T22:11:30.820Z,46.66
2023-03-02T22:12:34.921Z,47.08
2023-03-02T22:13:39.034Z,47.39
2023-03-02T22:14:43.136Z,45.48
2023-03-02T22:15:47.539Z,46.18
2023-03-02T22:16:51.697Z,46.5
2023-03-02T22:17:55.807Z,46.94
2023-03-02T22:18:59.890Z,46.87
2023-03-02T22:20:04.030Z,46.98
2023-03-02T22:21:08.118Z,47.21
2023-03-02T22:22:12.233Z,47.26
2023-03-02T22:23:16.462Z,47.45
2023-03-02T22:24:20.563Z,47.41
2023-03-02T22:25:24.660Z,47.47
2023-03-02T22:26:28.768Z,47.51
2023-03-02T22:27:32.879Z,47.61
2023-03-02T22:28:36.993Z,47.58
2023-03-02T22:29:41.354Z,47.69
2023-03-02T22:30:45.478Z,47.81
2023-03-02T22:31:49.618Z,47.89
2023-03-02T22:32:53.728Z,47.97
2023-03-02T22:33:57.838Z,47.94
2023-03-02T22:35:01.928Z,47.96
2023-03-02T22:36:06.024Z,48.11
2023-03-02T22:37:10.132Z,48.15
2023-03-02T22:38:14.251Z,48.14
2023-03-02T22:39:18.355Z,48.05
2023-03-02T22:40:22.578Z,48.1
2023-03-02T22:41:26.748Z,48.27
2023-03-02T22:42:30.880Z,48.21
2023-03-02T22:43:35.056Z,48.43
2023-03-02T22:44:39.201Z,48.33
2023-03-02T22:45:43.304Z,48.34
2023-03-02T22:46:47.650Z,48.32
2023-03-02T22:47:51.821Z,48.39
2023-03-02T22:48:55.977Z,48.45
2023-03-02T22:50:00.102Z,48.5
2023-03-02T22:51:04.268Z,48.51
2023-03-02T22:52:08.370Z,48.53
2023-03-02T22:53:12.483Z,48.49
2023-03-02T22:54:16.594Z,48.65
2023-03-02T22:55:20.673Z,48.6
2023-03-02T22:56:24.768Z,48.64
2023-03-02T22:57:29.016Z,48.77
2023-03-02T22:58:33.194Z,48.94
2023-03-02T22:59:37.294Z,48.85
2023-03-02T23:00:41.624Z,48.96
2023-03-02T23:01:45.765Z,48.84
2023-03-02T23:02:49.955Z,48.82
2023-03-02T23:03:54.148Z,49.14
2023-03-02T23:04:58.265Z,49.23
2023-03-02T23:06:02.382Z,49.02
2023-03-02T23:07:06.464Z,49.13
2023-03-02T23:08:10.572Z,49.16
2023-03-02T23:09:14.667Z,49.22
2023-03-02T23:10:18.784Z,49.25
2023-03-02T23:11:22.909Z,49.23
2023-03-02T23:12:27.082Z,49.33
2023-03-02T23:13:31.195Z,49.23
2023-03-02T23:14:35.304Z,49.27
2023-03-02T23:15:39.405Z,49.28
2023-03-02T23:16:43.761Z,49.23
2023-03-02T23:17:47.906Z,49.19
2023-03-02T23:18:52.013Z,49.22
2023-03-02T23:19:56.137Z,49.23
2023-03-02T23:21:00.252Z,49.27
2023-03-02T23:22:04.393Z,49.25
2023-03-02T23:23:08.515Z,49.28
2023-03-02T23:24:12.604Z,49.3
2023-03-02T23:25:16.716Z,49.41
2023-03-02T23:26:20.837Z,49.38
2023-03-02T23:27:24.975Z,49.34
2023-03-02T23:28:29.085Z,49.38
2023-03-02T23:29:33.230Z,49.34
2023-03-02T23:30:37.345Z,49.46
2023-03-02T23:31:41.686Z,49.47
2023-03-02T23:32:46.065Z,49.51
2023-03-02T23:33:50.206Z,49.45
2023-03-02T23:34:54.360Z,49.45
2023-03-02T23:35:58.758Z,49.52
2023-03-02T23:37:02.927Z,49.56
2023-03-02T23:38:07.045Z,49.55
2023-03-02T23:39:11.183Z,49.59
2023-03-02T23:40:15.323Z,49.65
2023-03-02T23:41:19.557Z,49.64
2023-03-02T23:42:23.720Z,49.72
2023-03-02T23:43:27.874Z,49.73
2023-03-02T23:44:31.996Z,49.78
2023-03-02T23:45:36.211Z,49.85
2023-03-02T23:46:40.340Z,49.79
2023-03-02T23:47:44.470Z,49.8
2023-03-02T23:48:48.620Z,49.77
2023-03-02T23:49:52.743Z,49.82
2023-03-02T23:50:56.886Z,49.83
2023-03-02T23:52:01.019Z,49.85
2023-03-02T23:53:05.216Z,49.86
2023-03-02T23:54:09.365Z,49.85
2023-03-02T23:55:13.490Z,49.86
2023-03-02T23:56:17.596Z,49.84
2023-03-02T23:57:21.735Z,49.88
2023-03-02T23:58:25.861Z,49.85
2023-03-02T23:59:30.066Z,49.84
